createdAt,value
2023-05-15T00:00:22.556Z,88.39
2023-05-15T00:01:22.558Z,88.89
2023-05-15T00:02:22.719Z,88.28
2023-05-15T00:03:22.664Z,88.48
2023-05-15T00:04:22.555Z,88.93
2023-05-15T00:05:22.759Z,89.54
2023-05-15T00:06:22.564Z,89.03
2023-05-15T00:07:22.488Z,89.44
2023-05-15T00:08:22.470Z,89.24
2023-05-15T00:09:22.446Z,89.95
2023-05-15T00:10:22.433Z,89.89
2023-05-15T00:11:22.438Z,89.79
2023-05-15T00:12:22.450Z,89.85
2023-05-15T00:13:22.398Z,90.86
2023-05-15T00:14:22.412Z,90.36
2023-05-15T00:15:22.427Z,90.36
2023-05-15T00:16:22.402Z,90.40
2023-05-15T00:17:22.372Z,90.77
2023-05-15T00:18:22.343Z,90.46
2023-05-15T00:19:22.344Z,90.81
2023-05-15T00:20:22.348Z,90.91
2023-05-15T00:21:22.374Z,90.81
2023-05-15T00:22:22.310Z,90.40
2023-05-15T00:23:22.298Z,90.50
2023-05-15T00:24:22.288Z,90.81
2023-05-15T00:25:22.285Z,90.50
2023-05-15T00:26:22.298Z,90.81
2023-05-15T00:27:22.262Z,90.70
2023-05-15T00:28:22.245Z,90.91
2023-05-15T00:29:22.244Z,90.91
2023-05-15T00:30:22.214Z,90.91
2023-05-15T00:31:22.261Z,90.60
2023-05-15T00:32:22.291Z,90.60
2023-05-15T00:33:22.189Z,90.91
2023-05-15T00:34:22.177Z,90.50
2023-05-15T00:35:22.215Z,90.50
2023-05-15T00:36:22.161Z,91.31
2023-05-15T00:37:22.158Z,91.11
2023-05-15T00:38:22.172Z,91.31
2023-05-15T00:39:22.124Z,91.11
2023-05-15T00:40:22.112Z,91.52
2023-05-15T00:41:22.115Z,91.42
2023-05-15T00:42:22.124Z,91.31
2023-05-15T00:43:22.090Z,91.31
2023-05-15T00:44:22.091Z,91.42
2023-05-15T00:45:22.068Z,91.36
2023-05-15T00:46:22.092Z,91.46
2023-05-15T00:47:22.112Z,91.83
2023-05-15T00:48:22.052Z,91.93
2023-05-15T00:49:22.019Z,91.87
2023-05-15T00:50:22.025Z,91.87
2023-05-15T00:51:22.025Z,91.87
2023-05-15T00:52:21.985Z,92.07
2023-05-15T00:53:22.053Z,91.56
2023-05-15T00:54:21.966Z,91.56
2023-05-15T00:55:22.057Z,91.66
2023-05-15T00:56:21.960Z,92.38
2023-05-15T00:57:21.949Z,92.48
2023-05-15T00:58:21.924Z,92.99
2023-05-15T00:59:21.928Z,92.18
2023-05-15T01:00:21.903Z,92.89
2023-05-15T01:01:21.998Z,92.89
2023-05-15T01:02:21.919Z,92.89
2023-05-15T01:03:21.901Z,92.68
2023-05-15T01:04:21.878Z,92.99
2023-05-15T01:05:21.905Z,92.68
2023-05-15T01:06:21.834Z,92.79
2023-05-15T01:07:21.843Z,92.89
2023-05-15T01:08:21.886Z,92.38
2023-05-15T01:09:21.826Z,92.48
2023-05-15T01:10:21.830Z,93.29
2023-05-15T01:11:21.778Z,93.40
2023-05-15T01:12:21.768Z,92.89
2023-05-15T01:13:21.759Z,93.09
2023-05-15T01:14:21.740Z,93.03
2023-05-15T01:15:21.793Z,92.99
2023-05-15T01:16:21.744Z,93.40
2023-05-15T01:17:21.713Z,93.29
2023-05-15T01:18:21.829Z,93.50
2023-05-15T01:19:21.810Z,93.60
2023-05-15T01:20:21.678Z,93.40
2023-05-15T01:21:21.704Z,93.44
2023-05-15T01:22:21.658Z,93.29
2023-05-15T01:23:21.644Z,93.54
2023-05-15T01:24:21.653Z,93.29
2023-05-15T01:25:21.690Z,93.80
2023-05-15T01:26:21.615Z,93.40
2023-05-15T01:27:21.651Z,93.19
2023-05-15T01:28:21.607Z,93.29
2023-05-15T01:29:21.576Z,93.50
2023-05-15T01:30:21.578Z,93.70
2023-05-15T01:31:21.556Z,93.29
2023-05-15T01:32:21.706Z,93.80
2023-05-15T01:33:21.592Z,93.33
2023-05-15T01:34:21.523Z,93.50
2023-05-15T01:35:21.527Z,93.50
2023-05-15T01:36:21.505Z,93.29
2023-05-15T01:37:21.498Z,93.40
2023-05-15T01:38:21.482Z,93.40
2023-05-15T01:39:21.529Z,93.50
2023-05-15T01:40:21.464Z,93.60
2023-05-15T01:41:21.473Z,93.40
2023-05-15T01:42:21.442Z,93.19
2023-05-15T01:43:21.414Z,93.40
2023-05-15T01:44:21.421Z,93.33
2023-05-15T01:45:21.428Z,93.40
2023-05-15T01:46:21.448Z,93.29
2023-05-15T01:47:21.416Z,93.70
2023-05-15T01:48:21.369Z,93.50
2023-05-15T01:49:21.360Z,93.54
2023-05-15T01:50:21.389Z,93.50
2023-05-15T01:51:21.360Z,93.70
2023-05-15T01:52:21.328Z,93.85
2023-05-15T01:53:21.316Z,93.74
2023-05-15T01:54:21.304Z,93.24
2023-05-15T01:55:21.290Z,94.05
2023-05-15T01:56:21.293Z,93.44
2023-05-15T01:57:21.285Z,93.90
2023-05-15T01:58:21.257Z,94.46
2023-05-15T01:59:21.268Z,94.01
2023-05-15T02:00:21.236Z,94.76
2023-05-15T02:01:21.282Z,94.72
2023-05-15T02:02:21.307Z,94.87
2023-05-15T02:03:21.359Z,95.17
2023-05-15T02:04:21.235Z,95.03
2023-05-15T02:05:21.187Z,95.43
2023-05-15T02:06:21.176Z,95.84
2023-05-15T02:07:21.189Z,95.74
2023-05-15T02:08:21.160Z,95.84
2023-05-15T02:09:21.129Z,95.84
2023-05-15T02:10:21.147Z,95.74
2023-05-15T02:11:21.130Z,95.74
2023-05-15T02:12:21.110Z,96.04
2023-05-15T02:13:21.113Z,96.15
2023-05-15T02:14:21.100Z,95.74
2023-05-15T02:15:21.078Z,96.51
2023-05-15T02:16:21.126Z,97.02
2023-05-15T02:17:21.072Z,96.71
2023-05-15T02:18:21.060Z,96.30
2023-05-15T02:19:21.031Z,96.71
2023-05-15T02:20:21.060Z,96.71
2023-05-15T02:21:21.005Z,96.61
2023-05-15T02:22:20.998Z,96.41
2023-05-15T02:23:21.010Z,96.41
2023-05-15T02:24:20.988Z,96.81
2023-05-15T02:25:20.998Z,96.36
2023-05-15T02:26:20.983Z,96.61
2023-05-15T02:27:20.951Z,96.36
2023-05-15T02:28:20.928Z,96.67
2023-05-15T02:29:20.963Z,95.75
2023-05-15T02:30:20.934Z,96.51
2023-05-15T02:31:22.307Z,96.30
2023-05-15T02:32:20.888Z,96.61
2023-05-15T02:33:20.919Z,96.56
2023-05-15T02:34:20.869Z,96.71
2023-05-15T02:35:20.868Z,96.61
2023-05-15T02:36:20.885Z,96.41
2023-05-15T02:37:20.831Z,96.87
2023-05-15T02:38:20.823Z,96.87
2023-05-15T02:39:20.814Z,96.61
2023-05-15T02:40:20.828Z,96.77
2023-05-15T02:41:20.816Z,96.97
2023-05-15T02:42:20.818Z,97.17
2023-05-15T02:43:20.778Z,97.07
2023-05-15T02:44:20.758Z,97.58
2023-05-15T02:45:20.971Z,97.78
2023-05-15T02:46:20.806Z,98.09
2023-05-15T02:47:20.754Z,97.78
2023-05-15T02:48:20.748Z,98.14
2023-05-15T02:49:20.741Z,98.09
2023-05-15T02:50:20.719Z,98.19
2023-05-15T02:51:20.726Z,98.30
2023-05-15T02:52:20.677Z,98.25
2023-05-15T02:53:20.665Z,98.05
2023-05-15T02:54:20.696Z,98.30
2023-05-15T02:55:20.644Z,99.01
2023-05-15T02:56:20.641Z,98.66
2023-05-15T02:57:20.616Z,99.06
2023-05-15T02:58:20.609Z,98.86
2023-05-15T02:59:20.597Z,99.06
2023-05-15T03:00:20.614Z,98.96
2023-05-15T03:01:20.699Z,99.06
2023-05-15T03:02:20.611Z,98.96
2023-05-15T03:03:20.553Z,99.01
2023-05-15T03:04:20.538Z,99.06
2023-05-15T03:05:20.528Z,99.06
2023-05-15T03:06:20.540Z,99.06
2023-05-15T03:07:20.540Z,98.96
2023-05-15T03:08:20.487Z,99.06
2023-05-15T03:09:20.494Z,99.16
2023-05-15T03:10:20.526Z,98.86
2023-05-15T03:11:21.242Z,99.37
2023-05-15T03:12:20.464Z,99.37
2023-05-15T03:13:20.468Z,99.27
2023-05-15T03:14:20.430Z,99.57
2023-05-15T03:15:20.425Z,99.67
2023-05-15T03:16:20.430Z,99.57
2023-05-15T03:17:20.416Z,99.82
2023-05-15T03:18:20.456Z,99.99
2023-05-15T03:19:20.389Z,99.99
2023-05-15T03:20:20.360Z,99.99
2023-05-15T03:21:20.354Z,99.99
2023-05-15T03:22:20.344Z,99.99
2023-05-15T03:23:20.336Z,99.99
2023-05-15T03:24:20.394Z,99.99
2023-05-15T03:25:20.316Z,99.99
2023-05-15T03:26:20.302Z,99.99
2023-05-15T03:27:20.309Z,99.98
2023-05-15T03:28:20.283Z,99.99
2023-05-15T03:29:20.267Z,99.99
2023-05-15T03:30:20.308Z,99.99
2023-05-15T03:31:20.280Z,99.99
2023-05-15T03:32:20.242Z,99.99
2023-05-15T03:33:20.253Z,99.98
2023-05-15T03:34:20.214Z,99.99
2023-05-15T03:35:20.233Z,99.99
2023-05-15T03:36:20.282Z,99.99
2023-05-15T03:37:20.192Z,99.99
2023-05-15T03:38:20.179Z,99.98
2023-05-15T03:39:20.180Z,99.99
2023-05-15T03:40:20.157Z,99.99
2023-05-15T03:41:20.148Z,99.98
2023-05-15T03:42:20.162Z,99.98
2023-05-15T03:43:20.125Z,99.99
2023-05-15T03:44:20.126Z,99.99
2023-05-15T03:45:20.109Z,99.99
2023-05-15T03:46:20.280Z,99.99
2023-05-15T03:47:20.103Z,99.98
2023-05-15T03:48:20.177Z,99.98
2023-05-15T03:49:20.087Z,99.99
2023-05-15T03:50:20.068Z,99.99
2023-05-15T03:51:20.049Z,99.99
2023-05-15T03:52:20.062Z,99.99
2023-05-15T03:53:20.052Z,99.99
2023-05-15T03:54:20.075Z,99.73
2023-05-15T03:55:20.000Z,99.73
2023-05-15T03:56:19.987Z,99.73
2023-05-15T03:57:19.999Z,99.77
2023-05-15T03:58:19.966Z,99.77
2023-05-15T03:59:19.967Z,99.67
2023-05-15T04:00:19.973Z,99.37
2023-05-15T04:01:19.949Z,99.63
2023-05-15T04:02:19.968Z,99.83
2023-05-15T04:03:20.084Z,99.98
2023-05-15T04:04:19.901Z,99.99
2023-05-15T04:05:19.957Z,99.98
2023-05-15T04:06:19.970Z,99.98
2023-05-15T04:07:19.868Z,99.47
2023-05-15T04:08:19.865Z,99.98
2023-05-15T04:09:19.854Z,99.77
2023-05-15T04:10:19.835Z,99.77
2023-05-15T04:11:19.863Z,99.88
2023-05-15T04:12:19.859Z,99.32
2023-05-15T04:13:19.817Z,99.83
2023-05-15T04:14:19.810Z,99.52
2023-05-15T04:15:19.790Z,99.83
2023-05-15T04:16:19.801Z,99.52
2023-05-15T04:17:19.836Z,98.91
2023-05-15T04:18:19.803Z,99.42
2023-05-15T04:19:19.851Z,99.22
2023-05-15T04:20:19.735Z,99.11
2023-05-15T04:21:19.759Z,98.91
2023-05-15T04:22:19.711Z,98.91
2023-05-15T04:23:19.706Z,98.81
2023-05-15T04:24:19.721Z,98.86
2023-05-15T04:25:19.686Z,99.02
2023-05-15T04:26:19.708Z,99.32
2023-05-15T04:27:19.689Z,99.22
2023-05-15T04:28:19.687Z,99.32
2023-05-15T04:29:19.640Z,99.22
2023-05-15T04:30:19.668Z,99.42
2023-05-15T04:31:19.681Z,99.42
2023-05-15T04:32:19.620Z,98.91
2023-05-15T04:33:19.625Z,99.22
2023-05-15T04:34:19.616Z,98.50
2023-05-15T04:35:19.593Z,99.11
2023-05-15T04:36:19.587Z,98.91
2023-05-15T04:37:19.621Z,99.02
2023-05-15T04:38:19.573Z,98.41
2023-05-15T04:39:19.539Z,98.50
2023-05-15T04:40:19.540Z,98.50
2023-05-15T04:41:19.591Z,98.61
2023-05-15T04:42:19.516Z,98.50
2023-05-15T04:43:19.491Z,98.81
2023-05-15T04:44:19.478Z,98.50
2023-05-15T04:45:19.469Z,98.61
2023-05-15T04:46:19.488Z,98.71
2023-05-15T04:47:19.480Z,99.02
2023-05-15T04:48:19.486Z,98.30
2023-05-15T04:49:19.423Z,98.00
2023-05-15T04:50:19.415Z,97.89
2023-05-15T04:51:19.412Z,98.20
2023-05-15T04:52:19.404Z,98.10
2023-05-15T04:53:19.422Z,98.00
2023-05-15T04:54:19.398Z,98.00
2023-05-15T04:55:19.364Z,97.89
2023-05-15T04:56:19.380Z,97.60
2023-05-15T04:57:19.357Z,98.00
2023-05-15T04:58:19.348Z,98.20
2023-05-15T04:59:19.332Z,98.05
2023-05-15T05:00:19.335Z,98.05
2023-05-15T05:01:19.319Z,98.05
2023-05-15T05:02:19.365Z,98.00
2023-05-15T05:03:19.332Z,98.00
2023-05-15T05:04:19.319Z,97.89
2023-05-15T05:05:19.280Z,98.00
2023-05-15T05:06:19.273Z,98.20
2023-05-15T05:07:19.230Z,98.00
2023-05-15T05:08:19.232Z,98.20
2023-05-15T05:09:19.238Z,97.89
2023-05-15T05:10:19.228Z,97.49
2023-05-15T05:11:19.241Z,97.69
2023-05-15T05:12:19.199Z,97.89
2023-05-15T05:13:19.173Z,97.60
2023-05-15T05:14:19.167Z,97.39
2023-05-15T05:15:19.170Z,97.19
2023-05-15T05:16:19.228Z,97.08
2023-05-15T05:17:19.146Z,97.69
2023-05-15T05:18:19.155Z,96.78
2023-05-15T05:19:19.113Z,96.98
2023-05-15T05:20:19.119Z,97.60
2023-05-15T05:21:19.094Z,97.49
2023-05-15T05:22:19.124Z,96.88
2023-05-15T05:23:19.076Z,97.49
2023-05-15T05:24:19.100Z,97.08
2023-05-15T05:25:19.131Z,96.98
2023-05-15T05:26:19.041Z,96.83
2023-05-15T05:27:19.026Z,97.14
2023-05-15T05:28:19.051Z,96.63
2023-05-15T05:29:19.005Z,96.63
2023-05-15T05:30:19.018Z,96.63
2023-05-15T05:31:19.043Z,96.73
2023-05-15T05:32:19.004Z,96.47
2023-05-15T05:33:18.962Z,96.47
2023-05-15T05:34:18.966Z,96.43
2023-05-15T05:35:18.946Z,96.68
2023-05-15T05:36:18.955Z,96.73
2023-05-15T05:37:18.925Z,96.12
2023-05-15T05:38:18.902Z,96.27
2023-05-15T05:39:18.921Z,96.12
2023-05-15T05:40:18.899Z,96.37
2023-05-15T05:41:18.901Z,96.63
2023-05-15T05:42:18.868Z,96.23
2023-05-15T05:43:18.872Z,95.62
2023-05-15T05:44:18.868Z,96.02
2023-05-15T05:45:18.848Z,95.66
2023-05-15T05:46:18.872Z,95.82
2023-05-15T05:47:18.812Z,95.82
2023-05-15T05:48:18.800Z,95.82
2023-05-15T05:49:18.813Z,95.56
2023-05-15T05:50:18.782Z,95.15
2023-05-15T05:51:18.784Z,95.36
2023-05-15T05:52:18.808Z,95.97
2023-05-15T05:53:18.761Z,95.76
2023-05-15T05:54:18.738Z,95.62
2023-05-15T05:55:18.737Z,96.17
2023-05-15T05:56:18.723Z,96.23
2023-05-15T05:57:18.744Z,95.10
2023-05-15T05:59:19.695Z,95.41
2023-05-15T06:00:18.690Z,94.66
2023-05-15T06:01:18.671Z,93.64
2023-05-15T06:02:18.741Z,93.13
2023-05-15T06:03:18.714Z,93.18
2023-05-15T06:04:18.714Z,93.79
2023-05-15T06:05:18.634Z,93.48
2023-05-15T06:06:18.627Z,93.99
2023-05-15T06:07:18.599Z,93.63
2023-05-15T06:08:18.592Z,93.63
2023-05-15T06:09:18.611Z,93.87
2023-05-15T06:10:18.596Z,93.73
2023-05-15T06:11:18.555Z,94.04
2023-05-15T06:12:19.262Z,94.54
2023-05-15T06:13:18.550Z,94.24
2023-05-15T06:14:19.449Z,94.48
2023-05-15T06:15:18.526Z,94.69
2023-05-15T06:16:18.522Z,94.59
2023-05-15T06:17:18.521Z,94.69
2023-05-15T06:18:18.473Z,94.48
2023-05-15T06:19:18.500Z,94.79
2023-05-15T06:20:18.465Z,94.69
2023-05-15T06:21:18.449Z,94.59
2023-05-15T06:22:18.462Z,94.79
2023-05-15T06:23:18.422Z,94.18
2023-05-15T06:24:18.413Z,95.09
2023-05-15T06:25:18.402Z,94.18
2023-05-15T06:26:18.416Z,94.38
2023-05-15T06:27:18.381Z,94.28
2023-05-15T06:28:18.392Z,95.00
2023-05-15T06:29:18.637Z,94.79
2023-05-15T06:30:18.370Z,93.67
2023-05-15T06:31:18.408Z,93.43
2023-05-15T06:32:18.328Z,93.73
2023-05-15T06:33:18.486Z,93.32
2023-05-15T06:34:18.426Z,94.04
2023-05-15T06:35:18.321Z,93.52
2023-05-15T06:36:18.299Z,93.06
2023-05-15T06:37:18.291Z,93.77
2023-05-15T06:38:18.285Z,94.08
2023-05-15T06:39:18.262Z,94.08
2023-05-15T06:40:18.295Z,93.83
2023-05-15T06:41:18.249Z,93.52
2023-05-15T06:42:18.232Z,93.77
2023-05-15T06:43:18.218Z,93.93
2023-05-15T06:44:18.201Z,93.63
2023-05-15T06:45:18.296Z,94.04
2023-05-15T06:46:18.236Z,93.22
2023-05-15T06:47:18.216Z,93.47
2023-05-15T06:48:18.209Z,93.67
2023-05-15T06:49:18.170Z,93.77
2023-05-15T06:50:18.153Z,93.26
2023-05-15T06:51:18.154Z,93.67
2023-05-15T06:52:18.145Z,92.91
2023-05-15T06:53:18.155Z,93.77
2023-05-15T06:54:18.103Z,93.37
2023-05-15T06:55:18.111Z,93.87
2023-05-15T06:56:18.109Z,93.57
2023-05-15T06:57:18.087Z,94.08
2023-05-15T06:58:18.108Z,93.92
2023-05-15T06:59:18.071Z,94.93
2023-05-15T07:00:18.042Z,94.93
2023-05-15T07:01:18.076Z,94.63
2023-05-15T07:02:18.016Z,94.73
2023-05-15T07:03:18.036Z,95.04
2023-05-15T07:04:18.059Z,94.69
2023-05-15T07:05:18.006Z,94.59
2023-05-15T07:06:17.976Z,94.43
2023-05-15T07:07:17.972Z,94.43
2023-05-15T07:08:17.958Z,95.45
2023-05-15T07:09:18.002Z,95.30
2023-05-15T07:10:18.000Z,95.61
2023-05-15T07:11:17.962Z,94.79
2023-05-15T07:12:17.908Z,95.00
2023-05-15T07:13:17.951Z,95.00
2023-05-15T07:14:17.915Z,95.09
2023-05-15T07:15:17.906Z,95.00
2023-05-15T07:16:17.894Z,95.30
2023-05-15T07:17:18.084Z,95.20
2023-05-15T07:18:17.918Z,94.69
2023-05-15T07:19:17.879Z,94.59
2023-05-15T07:20:17.852Z,95.00
2023-05-15T07:21:17.818Z,95.09
2023-05-15T07:22:17.805Z,95.09
2023-05-15T07:23:17.857Z,94.79
2023-05-15T07:24:17.821Z,94.63
2023-05-15T07:25:17.801Z,95.09
2023-05-15T07:26:27.492Z,94.48
2023-05-15T07:27:18.761Z,94.59
2023-05-15T07:28:17.774Z,94.08
2023-05-15T07:29:17.741Z,93.77
2023-05-15T07:30:17.816Z,94.08
2023-05-15T07:31:17.728Z,94.28
2023-05-15T07:32:17.777Z,94.18
2023-05-15T07:33:17.750Z,93.67
2023-05-15T07:34:17.688Z,93.77
2023-05-15T07:35:17.684Z,93.67
2023-05-15T07:36:17.729Z,93.67
2023-05-15T07:37:17.640Z,93.16
2023-05-15T07:38:17.682Z,93.98
2023-05-15T07:39:17.686Z,93.87
2023-05-15T07:40:17.612Z,93.67
2023-05-15T07:41:17.600Z,93.47
2023-05-15T07:42:17.651Z,93.16
2023-05-15T07:43:17.620Z,93.98
2023-05-15T07:44:17.575Z,93.62
2023-05-15T07:45:17.590Z,93.26
2023-05-15T07:46:17.563Z,93.67
2023-05-15T07:47:17.540Z,93.77
2023-05-15T07:48:17.549Z,93.57
2023-05-15T07:49:17.553Z,93.47
2023-05-15T07:50:17.520Z,93.16
2023-05-15T07:51:17.498Z,93.52
2023-05-15T07:52:17.491Z,93.12
2023-05-15T07:53:17.473Z,92.71
2023-05-15T07:54:17.480Z,92.61
2023-05-15T07:55:17.476Z,92.51
2023-05-15T07:56:17.470Z,93.73
2023-05-15T07:57:17.448Z,92.96
2023-05-15T07:58:17.442Z,93.12
2023-05-15T07:59:17.437Z,93.22
2023-05-15T08:00:17.449Z,93.52
2023-05-15T08:01:17.423Z,92.76
2023-05-15T08:02:17.436Z,93.02
2023-05-15T08:03:17.511Z,92.41
2023-05-15T08:04:17.431Z,93.26
2023-05-15T08:05:17.533Z,93.26
2023-05-15T08:06:17.401Z,92.55
2023-05-15T08:07:17.374Z,93.26
2023-05-15T08:08:17.335Z,92.86
2023-05-15T08:09:17.314Z,93.67
2023-05-15T08:10:17.307Z,93.16
2023-05-15T08:11:17.299Z,93.16
2023-05-15T08:12:17.317Z,93.67
2023-05-15T08:13:17.281Z,93.57
2023-05-15T08:14:17.323Z,93.67
2023-05-15T08:15:17.249Z,92.86
2023-05-15T08:16:17.281Z,93.26
2023-05-15T08:17:17.248Z,93.12
2023-05-15T08:18:17.269Z,93.32
2023-05-15T08:19:17.342Z,93.02
2023-05-15T08:20:17.207Z,92.91
2023-05-15T08:21:17.214Z,92.51
2023-05-15T08:22:17.172Z,92.86
2023-05-15T08:23:17.165Z,93.16
2023-05-15T08:24:17.190Z,92.96
2023-05-15T08:25:17.171Z,92.76
2023-05-15T08:26:17.151Z,92.82
2023-05-15T08:27:17.134Z,92.82
2023-05-15T08:28:17.133Z,93.02
2023-05-15T08:29:17.100Z,93.07
2023-05-15T08:30:17.118Z,91.90
2023-05-15T08:31:17.100Z,92.10
2023-05-15T08:32:17.081Z,91.69
2023-05-15T08:33:17.056Z,91.39
2023-05-15T08:34:17.094Z,91.60
2023-05-15T08:35:17.060Z,91.65
2023-05-15T08:36:17.167Z,90.78
2023-05-15T08:37:17.025Z,90.99
2023-05-15T08:38:17.040Z,91.19
2023-05-15T08:39:17.019Z,91.19
2023-05-15T08:40:17.641Z,91.19
2023-05-15T08:41:18.208Z,90.58
2023-05-15T08:42:16.974Z,91.69
2023-05-15T08:43:16.954Z,90.99
2023-05-15T08:44:16.936Z,90.37
2023-05-15T08:45:16.946Z,91.33
2023-05-15T08:46:16.942Z,91.69
2023-05-15T08:47:16.914Z,91.60
2023-05-15T08:48:17.002Z,92.00
2023-05-15T08:49:16.916Z,90.94
2023-05-15T08:50:16.905Z,90.17
2023-05-15T08:51:16.904Z,90.07
2023-05-15T08:52:16.866Z,89.83
2023-05-15T08:53:16.885Z,90.53
2023-05-15T08:54:16.880Z,90.64
2023-05-15T08:55:16.826Z,90.17
2023-05-15T08:56:16.834Z,90.68
2023-05-15T08:57:16.838Z,91.29
2023-05-15T08:58:16.807Z,90.17
2023-05-15T08:59:16.801Z,90.27
2023-05-15T09:00:16.835Z,90.99
2023-05-15T09:01:16.835Z,91.39
2023-05-15T09:02:16.757Z,91.19
2023-05-15T09:03:16.930Z,90.58
2023-05-15T09:04:16.735Z,90.13
2023-05-15T09:05:16.763Z,89.66
2023-05-15T09:06:16.729Z,90.58
2023-05-15T09:07:16.716Z,89.92
2023-05-15T09:08:16.713Z,89.92
2023-05-15T09:09:16.703Z,90.33
2023-05-15T09:10:16.672Z,89.72
2023-05-15T09:11:16.696Z,90.03
2023-05-15T09:12:16.650Z,89.88
2023-05-15T09:13:16.646Z,89.83
2023-05-15T09:14:16.649Z,88.97
2023-05-15T09:15:16.609Z,87.95
2023-05-15T09:16:16.655Z,88.36
2023-05-15T09:17:16.645Z,88.26
2023-05-15T09:18:16.605Z,88.56
2023-05-15T09:19:16.695Z,87.85
2023-05-15T09:20:16.567Z,88.97
2023-05-15T09:21:16.571Z,88.56
2023-05-15T09:22:16.544Z,88.06
2023-05-15T09:23:16.544Z,87.45
2023-05-15T09:24:16.518Z,88.67
2023-05-15T09:25:16.518Z,88.26
2023-05-15T09:26:16.493Z,87.51
2023-05-15T09:27:16.498Z,87.81
2023-05-15T09:28:16.472Z,87.26
2023-05-15T09:29:18.232Z,87.10
2023-05-15T09:30:16.449Z,87.16
2023-05-15T09:31:16.505Z,86.82
2023-05-15T09:32:16.593Z,87.16
2023-05-15T09:33:16.448Z,87.32
2023-05-15T09:34:16.403Z,87.38
2023-05-15T09:35:16.410Z,86.88
2023-05-15T09:36:16.382Z,85.42
2023-05-15T09:37:16.391Z,84.81
2023-05-15T09:38:16.358Z,84.70
2023-05-15T09:39:16.396Z,84.97
2023-05-15T09:40:16.346Z,85.07
2023-05-15T09:41:16.357Z,84.67
2023-05-15T09:42:16.319Z,84.97
2023-05-15T09:43:16.309Z,84.06
2023-05-15T09:44:16.304Z,84.42
2023-05-15T09:45:16.297Z,84.16
2023-05-15T09:46:16.308Z,84.33
2023-05-15T09:47:16.332Z,83.45
2023-05-15T09:48:16.367Z,84.27
2023-05-15T09:49:16.235Z,83.55
2023-05-15T09:50:16.270Z,82.84
2023-05-15T09:51:16.215Z,82.40
2023-05-15T09:52:16.218Z,83.41
2023-05-15T09:53:21.532Z,83.41
2023-05-15T09:54:17.204Z,84.06
2023-05-15T09:55:16.196Z,84.93
2023-05-15T09:56:16.187Z,86.21
2023-05-15T09:57:16.178Z,84.08
2023-05-15T09:58:16.159Z,82.93
2023-05-15T09:59:16.204Z,81.17
2023-05-15T10:00:16.120Z,81.57
2023-05-15T10:01:16.125Z,81.68
2023-05-15T10:02:16.097Z,81.54
2023-05-15T10:03:16.081Z,80.02
2023-05-15T10:04:16.082Z,79.92
2023-05-15T10:05:16.145Z,81.20
2023-05-15T10:06:16.143Z,80.08
2023-05-15T10:07:16.045Z,80.15
2023-05-15T10:08:16.139Z,80.55
2023-05-15T10:09:16.050Z,80.65
2023-05-15T10:10:16.010Z,79.14
2023-05-15T10:11:16.022Z,79.04
2023-05-15T10:12:16.003Z,79.85
2023-05-15T10:13:16.008Z,80.35
2023-05-15T10:14:15.972Z,79.85
2023-05-15T10:15:15.971Z,78.50
2023-05-15T10:16:15.984Z,79.41
2023-05-15T10:17:15.951Z,79.50
2023-05-15T10:18:15.933Z,78.56
2023-05-15T10:19:15.938Z,78.56
2023-05-15T10:20:15.939Z,78.46
2023-05-15T10:21:15.898Z,78.92
2023-05-15T10:22:15.891Z,77.62
2023-05-15T10:23:15.915Z,76.40
2023-05-15T10:24:15.871Z,76.61
2023-05-15T10:25:15.882Z,76.77
2023-05-15T10:26:15.847Z,77.28
2023-05-15T10:27:15.832Z,77.38
2023-05-15T10:28:15.825Z,77.88
2023-05-15T10:29:15.832Z,76.71
2023-05-15T10:30:15.819Z,77.86
2023-05-15T10:31:15.872Z,78.26
2023-05-15T10:32:15.782Z,77.95
2023-05-15T10:33:15.865Z,77.35
2023-05-15T10:34:15.749Z,78.96
2023-05-15T10:35:15.770Z,78.96
2023-05-15T10:36:15.757Z,78.83
2023-05-15T10:37:15.746Z,77.82
2023-05-15T10:38:15.724Z,77.42
2023-05-15T10:39:15.698Z,77.51
2023-05-15T10:40:15.765Z,78.79
2023-05-15T10:41:18.031Z,76.77
2023-05-15T10:42:15.694Z,76.57
2023-05-15T10:43:15.659Z,76.37
2023-05-15T10:44:15.674Z,75.02
2023-05-15T10:45:15.649Z,74.42
2023-05-15T10:46:15.639Z,75.13
2023-05-15T10:47:15.808Z,74.73
2023-05-15T10:48:15.638Z,75.09
2023-05-15T10:49:15.618Z,75.02
2023-05-15T10:50:15.625Z,76.84
2023-05-15T10:51:15.576Z,76.64
2023-05-15T10:52:15.572Z,76.30
2023-05-15T10:53:15.588Z,74.55
2023-05-15T10:54:15.530Z,74.45
2023-05-15T10:55:15.525Z,73.81
2023-05-15T10:56:15.582Z,72.61
2023-05-15T10:57:15.556Z,71.80
2023-05-15T10:58:15.515Z,72.07
2023-05-15T10:59:15.508Z,73.34
2023-05-15T11:00:15.520Z,73.10
2023-05-15T11:01:15.609Z,72.20
2023-05-15T11:02:15.471Z,71.70
2023-05-15T11:03:15.558Z,72.37
2023-05-15T11:04:15.466Z,70.56
2023-05-15T11:05:15.456Z,71.03
2023-05-15T11:06:15.403Z,72.10
2023-05-15T11:07:15.409Z,71.90
2023-05-15T11:08:15.414Z,71.90
2023-05-15T11:09:15.374Z,70.76
2023-05-15T11:10:15.362Z,71.66
2023-05-15T11:11:15.384Z,71.56
2023-05-15T11:12:15.370Z,71.06
2023-05-15T11:13:15.337Z,70.36
2023-05-15T11:14:15.330Z,70.06
2023-05-15T11:15:15.313Z,69.69
2023-05-15T11:16:15.338Z,71.09
2023-05-15T11:17:15.662Z,70.36
2023-05-15T11:18:15.321Z,68.92
2023-05-15T11:19:15.310Z,69.96
2023-05-15T11:20:15.253Z,70.19
2023-05-15T11:21:15.245Z,70.89
2023-05-15T11:22:15.229Z,72.60
2023-05-15T11:23:15.248Z,71.86
2023-05-15T11:24:15.234Z,71.63
2023-05-15T11:25:15.232Z,73.64
2023-05-15T11:26:15.192Z,71.63
2023-05-15T11:27:15.184Z,74.24
2023-05-15T11:28:15.168Z,73.10
2023-05-15T11:29:15.216Z,71.16
2023-05-15T11:30:15.284Z,71.03
2023-05-15T11:31:15.183Z,69.92
2023-05-15T11:32:15.126Z,70.83
2023-05-15T11:33:15.188Z,70.43
2023-05-15T11:34:15.101Z,67.92
2023-05-15T11:35:15.110Z,67.92
2023-05-15T11:36:15.096Z,68.76
2023-05-15T11:37:15.100Z,69.22
2023-05-15T11:38:15.093Z,69.82
2023-05-15T11:39:15.054Z,68.42
2023-05-15T11:40:15.043Z,68.52
2023-05-15T11:41:15.085Z,68.62
2023-05-15T11:42:15.035Z,68.25
2023-05-15T11:43:15.010Z,68.85
2023-05-15T11:44:14.992Z,70.83
2023-05-15T11:45:14.988Z,71.03
2023-05-15T11:46:15.010Z,72.00
2023-05-15T11:47:15.023Z,70.56
2023-05-15T11:48:14.977Z,70.12
2023-05-15T11:49:14.958Z,68.35
2023-05-15T11:50:14.926Z,68.95
2023-05-15T11:51:14.953Z,68.08
2023-05-15T11:52:14.912Z,68.18
2023-05-15T11:53:14.927Z,70.16
2023-05-15T11:54:14.908Z,69.46
2023-05-15T11:55:14.908Z,69.26
2023-05-15T11:56:14.862Z,69.26
2023-05-15T11:57:14.864Z,68.25
2023-05-15T11:58:14.842Z,70.56
2023-05-15T11:59:14.876Z,69.85
2023-05-15T12:00:14.913Z,70.23
2023-05-15T12:01:14.850Z,69.92
2023-05-15T12:02:14.803Z,68.85
2023-05-15T12:03:14.911Z,69.26
2023-05-15T12:04:15.019Z,69.39
2023-05-15T12:05:14.996Z,68.79
2023-05-15T12:06:14.794Z,68.59
2023-05-15T12:07:14.747Z,69.32
2023-05-15T12:08:14.771Z,68.18
2023-05-15T12:09:14.754Z,69.29
2023-05-15T12:10:14.724Z,69.15
2023-05-15T12:11:14.716Z,69.02
2023-05-15T12:12:14.756Z,69.53
2023-05-15T12:13:14.683Z,66.28
2023-05-15T12:14:14.674Z,67.08
2023-05-15T12:15:14.665Z,67.38
2023-05-15T12:16:14.658Z,66.48
2023-05-15T12:17:14.675Z,65.98
2023-05-15T12:18:14.644Z,65.28
2023-05-15T12:19:14.659Z,66.15
2023-05-15T12:20:14.631Z,66.35
2023-05-15T12:21:14.652Z,65.98
2023-05-15T12:22:14.590Z,66.58
2023-05-15T12:23:14.614Z,66.21
2023-05-15T12:24:14.566Z,66.91
2023-05-15T12:25:14.557Z,67.29
2023-05-15T12:26:14.537Z,66.48
2023-05-15T12:27:14.566Z,66.28
2023-05-15T12:28:14.599Z,65.25
2023-05-15T12:29:14.570Z,65.78
2023-05-15T12:30:14.493Z,65.38
2023-05-15T12:31:14.551Z,66.08
2023-05-15T12:32:14.605Z,65.78
2023-05-15T12:33:14.555Z,66.38
2023-05-15T12:34:14.474Z,65.58
2023-05-15T12:35:14.490Z,66.11
2023-05-15T12:36:14.464Z,65.34
2023-05-15T12:37:14.469Z,66.14
2023-05-15T12:38:14.496Z,65.24
2023-05-15T12:39:14.435Z,66.78
2023-05-15T12:40:14.484Z,68.08
2023-05-15T12:41:14.448Z,66.95
2023-05-15T12:42:14.363Z,66.75
2023-05-15T12:43:14.403Z,66.24
2023-05-15T12:44:14.370Z,67.08
2023-05-15T12:45:14.359Z,66.58
2023-05-15T12:46:14.404Z,65.41
2023-05-15T12:47:14.330Z,65.50
2023-05-15T12:48:14.392Z,66.54
2023-05-15T12:49:14.299Z,66.51
2023-05-15T12:50:14.276Z,66.54
2023-05-15T12:51:14.272Z,65.94
2023-05-15T12:52:14.267Z,65.73
2023-05-15T12:53:14.277Z,65.70